National Weather Service Raw Text Product

Displaying AFOS PIL: TAFMCW Received: 2018-01-12 17:42 UTC


051 
FTUS43 KDMX 121742
TAFMCW
TAF
KMCW 121742Z 1218/1318 35015KT P6SM FEW250
     FM130300 34009KT P6SM BKN170
     FM130400 34009KT P6SM SCT160=